Impacts TAF Board INFO
FOR SITUATIONAL AWARENESS. NOT TO BE USED FOR FLIGHT PLANNING PURPOSES.
IDs:

KLGA - New York/La Guardia, NY, US

Issued at 1734 UTC 21 Sep 2017
Updated at 1749 UTC 21 Sep 2017
Potential Impact None Slight Moderate High
Time1651Z 21/18Z 21/19Z 21/20Z 21/21Z 21/22Z 21/23Z 22/00Z 22/01Z 22/02Z 22/03Z 22/04Z 22/05Z 22/06Z>>
Type OBS PRVL PRVL PRVL PRVL PRVL PRVL PRVL PRVL PRVL PRVL PRVL PRVL PRVL
VIS 10 >6 >6 >6 >6 >6 >6 >6 >6 >6 >6 >6 >6 >6
CIG 180 250 250 250 250 250 250 250 250 250 250 250 250 250
Cover BKN BKN BKN BKN BKN BKN BKN BKN BKN BKN BKN BKN BKN BKN
FltCat VFR VFR VFR VFR VFR VFR VFR VFR VFR VFR VFR VFR VFR VFR
WX -- -- -- -- -- -- -- -- -- -- -- -- -- --
WDir 30 10 10 10 10 10 360 360 360 360 360 360 350 350
WSpd 11 13 13 13 13 13 10 10 10 10 10 10 12 12
WGst 18 20 20 20 20 20 -- -- -- -- -- -- -- --

Raw TAF
KLGA 211734Z 2118/2218 01013G20KT P6SM FEW040 BKN250
  FM212300 36010KT P6SM SCT050 BKN250
  FM220500 35012KT P6SM BKN250
  FM221300 01012G18KT P6SM BKN200


Raw METAR
KLGA 211651Z 03011G18KT 10SM FEW042 BKN180 BKN250 26/17 A3000 RMK AO2 SLP158 T02610172
KLGA 211551Z 36011KT 10SM FEW040 SCT150 OVC250 26/18 A3000 RMK AO2 SLP160 T02610178
KLGA 211451Z 01010KT 10SM FEW040 SCT150 OVC250 24/18 A3001 RMK AO2 SLP163 T02440178 51010

METAR Board
Radar Display
Forecast Discussion

FOR SITUATIONAL AWARENESS. NOT TO BE USED FOR FLIGHT PLANNING PURPOSES.